Terminal Aerodrome Forecast
Issued by NWS

Home | Current Version | Previous Version | Text Only | Print | Product List | Glossary On
Versions: 1 2 3 4 5 6 7 8 9 10 11 12 13 14 15 16 17 18 19 20 21 22 23 24 25 26 27 28 29 30 31 32 33 34 35 36 37 38 39 40 41 42 43 44 45 46 47 48 49 50
127
FTUS46 KOTX 171742
TAFPUW
TAF
KPUW 171742Z 1718/1818 11015G25KT P6SM OVC100
     FM172100 11012KT P6SM -PL OVC070
     FM172300 12014KT P6SM BKN050 OVC100
     FM180500 12012KT 6SM -FZRA BR OVC015
     FM180900 13014KT P6SM -RA OVC015=

USA.gov is the U.S. government's official web portal to all federal, state and local government web resources and services.